Terminal Aerodrome Forecast
Issued by NWS Louisville, KY

Home | Current Version | Previous Version | Text Only | Print | Product List | Glossary On
Versions: 1 2 3 4 5 6 7 8 9 10 11 12 13 14 15
747
FTUS43 KLMK 161907 AAA
TAFLEX
TAF AMD
KLEX 161907Z 1619/1718 28020G30KT P6SM VCSH BKN030
      TEMPO 1619/1620 1/2SM SN BKN018
     FM162300 27017G24KT P6SM BKN035
     FM170300 26012KT P6SM SCT030
     FM171300 26015G22KT P6SM BKN040=

USA.gov is the U.S. government's official web portal to all federal, state and local government web resources and services.